^^
Station Historical Data
 
Daily Summary for December 10, 2018 Units:  English    Metric   Both
« Previous Day
Next Day »
Daily Weekly Monthly Yearly Custom
  Current: High: Low: Average:
Temperature: 18.1 °F 29.8 °F 2.7 °F 15.8 °F
Dew Point: 17.6 °F 23.9 °F 1 °F 13.8 °F
Humidity: 98% 98% 76% 92%
Wind Speed: 2mph 8.1mph 0mph 0.5mph
Wind Gust: 2mph 8.1mph - -
WindWNW - - SW
Pressure: 29.96 in 30.22 in 29.96 in -
Precipitation: 0 in      
Historical Graphs
 
 
Tabular Data for December 10, 2018
Time Temperature Dew Point Pressure Wind Wind Speed Wind Gust Humidity Rainfall Rate (Hourly) solar Conditions
00:04 11.5 °F 10.9 °F 30.22 in Calm     98% 0 in meteobridge W/m2
00:09 11.5 °F 10.9 °F 30.21 in Calm   -999 mph 98% 0 in meteobridge W/m2
00:14 11.1 °F 10.6 °F 30.21 in Calm     98% 0 in meteobridge W/m2
00:19 11.1 °F 10.6 °F 30.21 in Calm     98% 0 in meteobridge W/m2
00:24 11.1 °F 10.6 °F 30.21 in Calm     98% 0 in meteobridge W/m2
00:29 10.8 °F 10.2 °F 30.21 in Calm     98% 0 in meteobridge W/m2
00:34 10.8 °F 10.2 °F 30.21 in Calm     98% 0 in meteobridge W/m2
00:39 10.6 °F 10 °F 30.21 in Calm     98% 0 in meteobridge W/m2
00:44 10.6 °F 10 °F 30.20 in Calm     98% 0 in meteobridge W/m2
00:49 10.2 °F 9.7 °F 30.20 in Calm     98% 0 in meteobridge W/m2
00:54 10.2 °F 9.7 °F 30.20 in Calm     98% 0 in meteobridge W/m2
00:59 10 °F 9.5 °F 30.21 in Calm     98% 0 in meteobridge W/m2
01:04 10 °F 9.5 °F 30.21 in Calm     98% 0 in meteobridge W/m2
01:09 9.9 °F 9.3 °F 30.20 in Calm     98% 0 in meteobridge W/m2
01:14 9.7 °F 9.1 °F 30.20 in Calm     98% 0 in meteobridge W/m2
01:19 9.7 °F 9.1 °F 30.20 in Calm     98% 0 in meteobridge W/m2
01:24 9.5 °F 9 °F 30.20 in Calm     98% 0 in meteobridge W/m2
01:29 9.5 °F 9 °F 30.20 in Calm     98% 0 in meteobridge W/m2
01:34 9.3 °F 9 °F 30.20 in Calm     98% 0 in meteobridge W/m2
01:39 9.3 °F 9 °F 30.20 in Calm     98% 0 in meteobridge W/m2
01:44 9.1 °F 8.8 °F 30.20 in Calm     98% 0 in meteobridge W/m2
01:49 9 °F 8.6 °F 30.20 in Calm     98% 0 in meteobridge W/m2
01:54 9 °F 8.6 °F 30.20 in Calm     98% 0 in meteobridge W/m2
01:59 8.8 °F 8.4 °F 30.19 in Calm     98% 0 in meteobridge W/m2
02:04 8.8 °F 8.4 °F 30.20 in Calm   -999 mph 98% 0 in meteobridge W/m2
02:09 8.6 °F 8.2 °F 30.19 in Calm     98% 0 in meteobridge W/m2
02:14 8.2 °F 7.9 °F 30.19 in Calm     98% 0 in meteobridge W/m2
02:19 8.2 °F 7.9 °F 30.20 in Calm     98% 0 in meteobridge W/m2
02:24 8.1 °F 7.2 °F 30.20 in Calm     96% 0 in meteobridge W/m2
02:29 8.1 °F 7.2 °F 30.20 in Calm     96% 0 in meteobridge W/m2
02:34 8.1 °F 7.2 °F 30.20 in Calm     96% 0 in meteobridge W/m2
02:39 7.9 °F 7 °F 30.20 in Calm     96% 0 in meteobridge W/m2
02:44 7.5 °F 6.6 °F 30.20 in Calm     96% 0 in meteobridge W/m2
02:49 7.5 °F 6.6 °F 30.20 in Calm     96% 0 in meteobridge W/m2
02:54 7.2 °F 6.1 °F 30.20 in Calm     95% 0 in meteobridge W/m2
02:59 7.2 °F 6.1 °F 30.20 in Calm     95% 0 in meteobridge W/m2
03:04 7 °F 5.9 °F 30.20 in Calm     95% 0 in meteobridge W/m2
03:09 7 °F 6.1 °F 30.20 in Calm     96% 0 in meteobridge W/m2
03:14 6.4 °F 5.4 °F 30.20 in Calm     95% 0 in meteobridge W/m2
03:19 6.4 °F 5.4 °F 30.20 in Calm     95% 0 in meteobridge W/m2
03:24 6.3 °F 4.6 °F 30.20 in Calm     93% 0 in meteobridge W/m2
03:29 6.1 °F 4.5 °F 30.20 in Calm     93% 0 in meteobridge W/m2
03:34 5.5 °F 3.9 °F 30.19 in Calm     93% 0 in meteobridge W/m2
03:39 5.5 °F 3.9 °F 30.19 in Calm     93% 0 in meteobridge W/m2
03:44 5.2 °F 4.1 °F 30.19 in Calm     95% 0 in meteobridge W/m2
03:49 5.2 °F 4.1 °F 30.19 in Calm     95% 0 in meteobridge W/m2
03:54 5 °F 3.9 °F 30.19 in Calm     95% 0 in meteobridge W/m2
03:59 4.8 °F 3.7 °F 30.19 in Calm     95% 0 in meteobridge W/m2
04:04 4.8 °F 3.7 °F 30.19 in Calm     95% 0 in meteobridge W/m2
04:09 4.5 °F 3.4 °F 30.19 in Calm     95% 0 in meteobridge W/m2
04:14 4.5 °F 3.4 °F 30.19 in Calm     95% 0 in meteobridge W/m2
04:19 4.5 °F 3.6 °F 30.19 in Calm     96% 0 in meteobridge W/m2
04:24 4.3 °F 3.2 °F 30.20 in Calm     95% 0 in meteobridge W/m2
04:29 4.3 °F 3.2 °F 30.20 in Calm     95% 0 in meteobridge W/m2
04:34 3.9 °F 2.3 °F 30.18 in Calm     93% 0 in meteobridge W/m2
04:39 3.7 °F 2.1 °F 30.20 in Calm     93% 0 in meteobridge W/m2
04:44 3.6 °F 2.5 °F 30.20 in Calm     95% 0 in meteobridge W/m2
04:49 3.4 °F 2.3 °F 30.20 in Calm     95% 0 in meteobridge W/m2
04:54 3.4 °F 2.3 °F 30.20 in Calm     95% 0 in meteobridge W/m2
04:59 3 °F 1.9 °F 30.18 in Calm     95% 0 in meteobridge W/m2
05:04 3 °F 1.4 °F 30.18 in Calm     93% 0 in meteobridge W/m2
05:09 3 °F 1.4 °F 30.18 in Calm     93% 0 in meteobridge W/m2
05:14 3 °F 1.4 °F 30.17 in Calm     93% 0 in meteobridge W/m2
05:19 2.7 °F 1.6 °F 30.19 in Calm     95% 0 in meteobridge W/m2
05:24 2.7 °F 1.6 °F 30.18 in Calm   -999 mph 95% 0 in meteobridge W/m2
05:29 2.7 °F 1.6 °F 30.19 in Calm     95% 0 in meteobridge W/m2
05:34 2.7 °F 1.6 °F 30.18 in Calm     95% 0 in meteobridge W/m2
05:39 2.7 °F 1.6 °F 30.19 in Calm     95% 0 in meteobridge W/m2
05:44 2.7 °F 1 °F 30.19 in Calm     93% 0 in meteobridge W/m2
05:49 2.7 °F 1.6 °F 30.19 in Calm     95% 0 in meteobridge W/m2
05:54 2.7 °F 1.6 °F 30.18 in Calm     95% 0 in meteobridge W/m2
05:59 2.7 °F 1.6 °F 30.18 in Calm     95% 0 in meteobridge W/m2
06:04 2.7 °F 1.6 °F 30.17 in Calm     95% 0 in meteobridge W/m2
06:09 3 °F 1.4 °F 30.18 in Calm     93% 0 in meteobridge W/m2
06:14 2.7 °F 1 °F 30.18 in Calm     93% 0 in meteobridge W/m2
06:19 3 °F 2.1 °F 30.18 in Calm     96% 0 in meteobridge W/m2
06:24 3 °F 2.1 °F 30.18 in Calm     96% 0 in meteobridge W/m2
06:29 3 °F 2.1 °F 30.18 in Calm     96% 0 in meteobridge W/m2
06:34 3 °F 2.1 °F 30.18 in Calm     96% 0 in meteobridge W/m2
06:39 3 °F 2.1 °F 30.17 in Calm     96% 0 in meteobridge W/m2
06:44 3 °F 1.9 °F 30.17 in Calm     95% 0 in meteobridge W/m2
06:49 3 °F 1.9 °F 30.17 in Calm     95% 0 in meteobridge W/m2
06:54 3 °F 1.9 °F 30.17 in Calm     95% 0 in meteobridge W/m2
06:59 3 °F 1.9 °F 30.17 in Calm     95% 0 in meteobridge W/m2
07:04 3 °F 2.1 °F 30.17 in Calm     96% 0 in meteobridge W/m2
07:09 3 °F 2.1 °F 30.17 in Calm     96% 0 in meteobridge W/m2
07:14 3 °F 2.1 °F 30.16 in Calm     96% 0 in meteobridge W/m2
07:19 3 °F 2.1 °F 30.17 in Calm     96% 0 in meteobridge W/m2
07:24 3.4 °F 2.5 °F 30.16 in Calm     96% 0 in meteobridge W/m2
07:29 3.4 °F 2.5 °F 30.16 in Calm   -999 mph 96% 0 in meteobridge W/m2
07:34 3.4 °F 2.5 °F 30.17 in Calm     96% 0 in meteobridge W/m2
07:38 3.4 °F 2.3 °F 30.17 in Calm     95% 0 in meteobridge W/m2
07:44 3.4 °F 2.5 °F 30.17 in Calm   -999 mph 96% 0 in meteobridge W/m2
07:49 3.7 °F 2.8 °F 30.16 in Calm     96% 0 in meteobridge W/m2
07:54 3.9 °F 2.8 °F 30.16 in Calm     95% 0 in meteobridge W/m2
07:59 3.9 °F 2.8 °F 30.16 in Calm     95% 0 in meteobridge W/m2
08:04 3.9 °F 2.8 °F 30.16 in Calm     95% 0 in meteobridge W/m2
08:09 5.4 °F 5 °F 30.16 in Calm     98% 0 in meteobridge W/m2
08:14 5.9 °F 5.5 °F 30.16 in Calm     98% 0 in meteobridge W/m2
08:19 6.8 °F 6.4 °F 30.16 in Calm     98% 0 in meteobridge W/m2
08:24 7.3 °F 7 °F 30.16 in Calm     98% 0 in meteobridge W/m2
08:29 8.1 °F 7.7 °F 30.16 in Calm     98% 0 in meteobridge W/m2
08:34 9 °F 8.6 °F 30.15 in Calm     98% 0 in meteobridge W/m2
08:39 9.3 °F 9 °F 30.15 in Calm   -999 mph 98% 0 in meteobridge W/m2
08:44 11.1 °F 10.6 °F 30.15 in Calm     98% 0 in meteobridge W/m2
08:49 12.7 °F 12.2 °F 30.15 in SW 0.9 mph 0.9 mph 98% 0 in meteobridge W/m2
08:54 14.4 °F 13.8 °F 30.15 in Calm     98% 0 in meteobridge W/m2
08:59 15.3 °F 14.7 °F 30.15 in West 2 mph 2 mph 98% 0 in meteobridge W/m2
09:04 16 °F 15.4 °F 30.15 in Calm   -999 mph 98% 0 in meteobridge W/m2
09:09 16.3 °F 15.8 °F 30.15 in Calm     98% 0 in meteobridge W/m2
09:14 16.7 °F 16.2 °F 30.15 in Calm     98% 0 in meteobridge W/m2
09:18 16.7 °F 16.2 °F 30.15 in Calm     98% 0 in meteobridge W/m2
09:24 16.3 °F 15.8 °F 30.15 in Calm     98% 0 in meteobridge W/m2
09:29 17.1 °F 16.5 °F 30.15 in Calm     98% 0 in meteobridge W/m2
09:34 17.4 °F 16.9 °F 30.15 in SW 0.9 mph 0.9 mph 98% 0 in meteobridge W/m2
09:39 18 °F 17.4 °F 30.15 in SSW 2 mph 2 mph 98% 0 in meteobridge W/m2
09:44 18.5 °F 18 °F 30.15 in Calm     98% 0 in meteobridge W/m2
09:49 18.7 °F 18.1 °F 30.15 in Calm     98% 0 in meteobridge W/m2
09:54 19.2 °F 18.7 °F 30.15 in Calm     98% 0 in meteobridge W/m2
09:59 19.2 °F 18.3 °F 30.15 in Calm     96% 0 in meteobridge W/m2
10:04 19.2 °F 18.3 °F 30.15 in WSW 0.9 mph -999 mph 96% 0 in meteobridge W/m2
10:09 19.2 °F 18.3 °F 30.15 in SW 0.9 mph 0.9 mph 96% 0 in meteobridge W/m2
10:14 19.8 °F 18.9 °F 30.14 in Calm     96% 0 in meteobridge W/m2
10:19 19.8 °F 18.9 °F 30.14 in Calm     96% 0 in meteobridge W/m2
10:24 19.8 °F 18.9 °F 30.14 in Calm     96% 0 in meteobridge W/m2
10:29 19.9 °F 19 °F 30.14 in Calm     96% 0 in meteobridge W/m2
10:34 20.1 °F 18.9 °F 30.14 in Calm   0.9 mph 95% 0 in meteobridge W/m2
10:39 20.7 °F 19.4 °F 30.13 in Calm   2 mph 95% 0 in meteobridge W/m2
10:44 21.4 °F 20.1 °F 30.13 in WSW 2 mph 2 mph 95% 0 in meteobridge W/m2
10:49 21.6 °F 19.9 °F 30.13 in WSW 0.9 mph 0.9 mph 93% 0 in meteobridge W/m2
10:54 21.7 °F 20.1 °F 30.12 in WSW 0.9 mph 0.9 mph 93% 0 in meteobridge W/m2
10:59 21.7 °F 20.1 °F 30.12 in Calm     93% 0 in meteobridge W/m2
11:02 21.7 °F 20.1 °F 30.12 in West 0.9 mph 0.9 mph 93% 0 in meteobridge W/m2
11:09 21.9 °F 20.1 °F 30.12 in Calm     93% 0 in meteobridge W/m2
11:14 22.3 °F 20.1 °F 30.11 in Calm     91% 0 in meteobridge W/m2
11:19 22.5 °F 20.3 °F 30.11 in Calm     91% 0 in meteobridge W/m2
11:24 22.5 °F 20.3 °F 30.11 in Calm   -999 mph 91% 0 in meteobridge W/m2
11:28 22.6 °F 20.5 °F 30.11 in SW 0.9 mph 0.9 mph 91% 0 in meteobridge W/m2
11:34 23.2 °F 21 °F 30.11 in Calm     91% 0 in meteobridge W/m2
11:39 23.4 °F 20.8 °F 30.11 in SW 2 mph 2 mph 90% 0 in meteobridge W/m2
11:44 23.7 °F 20.7 °F 30.12 in Calm     88% 0 in meteobridge W/m2
11:49 24.1 °F 21 °F 30.11 in Calm     88% 0 in meteobridge W/m2
11:54 24.3 °F 21.2 °F 30.10 in SW 0.9 mph 0.9 mph 88% 0 in meteobridge W/m2
11:59 24.6 °F 21.6 °F 30.10 in Calm     88% 0 in meteobridge W/m2
12:03 24.8 °F 21.7 °F 30.10 in Calm     88% 0 in meteobridge W/m2
12:09 25.2 °F 21.6 °F 30.09 in SE 2 mph 2 mph 86% 0 in meteobridge W/m2
12:14 25.7 °F 22.1 °F 30.09 in Calm     86% 0 in meteobridge W/m2
12:19 26.2 °F 22.6 °F 30.09 in Calm     86% 0 in meteobridge W/m2
12:24 27.1 °F 22.6 °F 30.09 in Calm   2 mph 83% 0 in meteobridge W/m2
12:29 27.3 °F 22.8 °F 30.08 in Calm     83% 0 in meteobridge W/m2
12:34 27.5 °F 23 °F 30.08 in SSE 0.9 mph 0.9 mph 83% 0 in meteobridge W/m2
12:39 27.3 °F 22.8 °F 30.07 in Calm     83% 0 in meteobridge W/m2
12:44 27.9 °F 22.8 °F 30.07 in SW 2.9 mph 2.9 mph 81% 0 in meteobridge W/m2
12:49 27.9 °F 23.4 °F 30.07 in Calm     83% 0 in meteobridge W/m2
12:54 27.9 °F 22.8 °F 30.07 in WSW 4 mph 4 mph 81% 0 in meteobridge W/m2
12:59 27.9 °F 22.8 °F 30.07 in Calm     81% 0 in meteobridge W/m2
13:04 28.8 °F 23.7 °F 30.07 in South 0.9 mph 0.9 mph 81% 0 in meteobridge W/m2
13:09 28.6 °F 23.5 °F 30.05 in Calm   2.9 mph 81% 0 in meteobridge W/m2
13:14 28.6 °F 23.5 °F 30.07 in Calm     81% 0 in meteobridge W/m2
13:19 28.6 °F 23.5 °F 30.05 in Calm     81% 0 in meteobridge W/m2
13:24 28.8 °F 23.4 °F 30.05 in Calm     80% 0 in meteobridge W/m2
13:29 28.8 °F 23.4 °F 30.05 in Calm     80% 0 in meteobridge W/m2
13:34 28.8 °F 23.4 °F 30.04 in West 2 mph 2 mph 80% 0 in meteobridge W/m2
13:39 29.1 °F 23.7 °F 30.04 in Calm     80% 0 in meteobridge W/m2
13:44 28.8 °F 23.4 °F 30.04 in Calm     80% 0 in meteobridge W/m2
13:49 29.7 °F 23.9 °F 30.04 in SSW 0.9 mph 0.9 mph 79% 0 in meteobridge W/m2
13:54 29.1 °F 23.4 °F 30.04 in Calm   0.9 mph 79% 0 in meteobridge W/m2
13:59 29.5 °F 23.7 °F 30.05 in West 0.9 mph 0.9 mph 79% 0 in meteobridge W/m2
14:04 29.5 °F 23.5 °F 30.04 in West 2.9 mph -999 mph 78% 0 in meteobridge W/m2
14:09 29.1 °F 23.2 °F 30.03 in Calm     78% 0 in meteobridge W/m2
14:14 29.7 °F 23.7 °F 30.03 in SSW 2 mph 2 mph 78% 0 in meteobridge W/m2
14:19 29.8 °F 23.2 °F 30.03 in SE 0.9 mph 0.9 mph 76% 0 in meteobridge W/m2
14:24 29.7 °F 23 °F 30.03 in South 0.9 mph 2 mph 76% 0 in meteobridge W/m2
14:29 29.7 °F 23 °F 30.02 in Calm   2.9 mph 76% 0 in meteobridge W/m2
14:34 29.1 °F 23.4 °F 30.02 in Calm     79% 0 in meteobridge W/m2
14:39 29.1 °F 23.4 °F 30.01 in SSW 2 mph 2 mph 79% 0 in meteobridge W/m2
14:44 29.1 °F 23.7 °F 30.01 in Calm     80% 0 in meteobridge W/m2
14:49 28.8 °F 23.4 °F 30.01 in Calm   2 mph 80% 0 in meteobridge W/m2
14:54 28.6 °F 23.5 °F 30.01 in Calm     81% 0 in meteobridge W/m2
14:59 28.8 °F 23.7 °F 30.01 in Calm     81% 0 in meteobridge W/m2
15:02 28.8 °F 23.7 °F 30.01 in Calm     81% 0 in meteobridge W/m2
15:09 29.7 °F 23.7 °F 30.01 in Calm     78% 0 in meteobridge W/m2
15:14 28.8 °F 23.4 °F 30.01 in Calm     80% 0 in meteobridge W/m2
15:19 28.8 °F 23.4 °F 30.01 in Calm   -999 mph 80% 0 in meteobridge W/m2
15:24 28.8 °F 23 °F 30.00 in Calm     79% 0 in meteobridge W/m2
15:29 28.8 °F 23 °F 30.00 in South 0.9 mph -999 mph 79% 0 in meteobridge W/m2
15:34 28.6 °F 22.8 °F 30.00 in Calm     79% 0 in meteobridge W/m2
15:39 28.2 °F 22.8 °F 29.99 in Calm     80% 0 in meteobridge W/m2
15:44 27.9 °F 22.5 °F 29.99 in Calm     80% 0 in meteobridge W/m2
15:49 27.9 °F 22.5 °F 30.00 in Calm     80% 0 in meteobridge W/m2
15:54 27.7 °F 22.6 °F 29.99 in Calm     81% 0 in meteobridge W/m2
15:59 27.1 °F 22.1 °F 30.00 in Calm     81% 0 in meteobridge W/m2
16:04 27 °F 21.9 °F 30.00 in Calm   -999 mph 81% 0 in meteobridge W/m2
16:09 26.6 °F 22.1 °F 30.00 in Calm     83% 0 in meteobridge W/m2
16:14 26.2 °F 21.7 °F 30.00 in West 2.9 mph 2.9 mph 83% 0 in meteobridge W/m2
16:19 26.1 °F 21.6 °F 30.00 in Calm     83% 0 in meteobridge W/m2
16:24 25.7 °F 21.2 °F 29.99 in Calm   2 mph 83% 0 in meteobridge W/m2
16:29 25.7 °F 21.7 °F 29.99 in Calm     85% 0 in meteobridge W/m2
16:34 25.3 °F 21.4 °F 30.00 in WSW 0.9 mph 0.9 mph 85% 0 in meteobridge W/m2
16:39 25.2 °F 21.6 °F 30.00 in SW 2 mph 4 mph 86% 0 in meteobridge W/m2
16:44 25.2 °F 21.6 °F 30.00 in SW 2 mph 2 mph 86% 0 in meteobridge W/m2
16:49 25 °F 21.4 °F 30.00 in Calm   6 mph 86% 0 in meteobridge W/m2
16:54 24.8 °F 21.2 °F 30.00 in Calm     86% 0 in meteobridge W/m2
16:59 24.4 °F 20.8 °F 30.01 in Calm   4 mph 86% 0 in meteobridge W/m2
17:04 24.1 °F 21 °F 30.01 in Calm     88% 0 in meteobridge W/m2
17:09 23.7 °F 20.7 °F 30.01 in Calm     88% 0 in meteobridge W/m2
17:14 23.4 °F 20.8 °F 30.00 in WSW 2.9 mph 2.9 mph 90% 0 in meteobridge W/m2
17:19 23.4 °F 20.8 °F 30.00 in SSE 6 mph 6 mph 90% 0 in meteobridge W/m2
17:24 22.6 °F 20.5 °F 30.00 in West 0.9 mph 2.9 mph 91% 0 in meteobridge W/m2
17:29 22.5 °F 20.3 °F 30.00 in SW 0.9 mph 4 mph 91% 0 in meteobridge W/m2
17:34 22.3 °F 20.1 °F 30.00 in SW 4 mph 4 mph 91% 0 in meteobridge W/m2
17:39 22.1 °F 19.9 °F 30.00 in SW 2.9 mph 4 mph 91% 0 in meteobridge W/m2
17:44 21.9 °F 19.8 °F 30.00 in SW 2 mph 4 mph 91% 0 in meteobridge W/m2
17:49 21.7 °F 19.6 °F 29.98 in SW 2.9 mph 2.9 mph 91% 0 in meteobridge W/m2
17:54 21.2 °F 19.6 °F 29.98 in Calm   2.9 mph 93% 0 in meteobridge W/m2
17:59 20.7 °F 19 °F 29.99 in Calm   2 mph 93% 0 in meteobridge W/m2
18:04 20.7 °F 19 °F 29.99 in West 0.9 mph 0.9 mph 93% 0 in meteobridge W/m2
18:09 20.5 °F 18.9 °F 29.99 in Calm   0.9 mph 93% 0 in meteobridge W/m2
18:14 19.9 °F 18.7 °F 29.98 in WSW 2.9 mph 2.9 mph 95% 0 in meteobridge W/m2
18:19 19.9 °F 18.7 °F 29.98 in Calm   0.9 mph 95% 0 in meteobridge W/m2
18:24 19.8 °F 18.5 °F 29.98 in West 2 mph 4 mph 95% 0 in meteobridge W/m2
18:29 19.8 °F 18.9 °F 29.98 in WSW 4 mph 4 mph 96% 0 in meteobridge W/m2
18:34 19.6 °F 18.7 °F 29.98 in Calm   2 mph 96% 0 in meteobridge W/m2
18:39 19.2 °F 18.3 °F 29.98 in SW 2 mph 2 mph 96% 0 in meteobridge W/m2
18:44 19 °F 18.1 °F 29.98 in SW 2.9 mph 4 mph 96% 0 in meteobridge W/m2
18:49 19 °F 18.5 °F 29.98 in WNW 8.1 mph 8.1 mph 98% 0 in meteobridge W/m2
18:54 19 °F 18.5 °F 29.98 in SW 2.9 mph 2.9 mph 98% 0 in meteobridge W/m2
18:59 18.9 °F 18.3 °F 29.98 in SW 2 mph 2 mph 98% 0 in meteobridge W/m2
19:04 18.5 °F 18 °F 29.97 in SW 2 mph 2 mph 98% 0 in meteobridge W/m2
19:09 18.5 °F 18 °F 29.97 in West 2.9 mph 2.9 mph 98% 0 in meteobridge W/m2
19:14 18.1 °F 17.6 °F 29.97 in WSW 2 mph 2.9 mph 98% 0 in meteobridge W/m2
19:19 18.1 °F 17.6 °F 29.97 in SSW 2 mph 2 mph 98% 0 in meteobridge W/m2
19:24 18.1 °F 17.6 °F 29.97 in WNW 2 mph 4 mph 98% 0 in meteobridge W/m2
19:29 18.1 °F 17.6 °F 29.97 in SW 2.9 mph 4 mph 98% 0 in meteobridge W/m2
19:34 18.1 °F 17.6 °F 29.97 in West 0.9 mph 2.9 mph 98% 0 in meteobridge W/m2
19:39 18.1 °F 17.6 °F 29.97 in West 4 mph 4 mph 98% 0 in meteobridge W/m2
19:44 18.1 °F 17.6 °F 29.97 in WNW 2.9 mph 4 mph 98% 0 in meteobridge W/m2
19:49 18.1 °F 17.6 °F 29.96 in WSW 2.9 mph 6 mph 98% 0 in meteobridge W/m2
19:54 18.1 °F 17.6 °F 29.96 in WSW 2 mph 2.9 mph 98% 0 in meteobridge W/m2
19:59 18.1 °F 17.6 °F 29.96 in SW 4 mph 4.9 mph 98% 0 in meteobridge W/m2
20:04 18.1 °F 17.6 °F 29.96 in SW 2 mph -999 mph 98% 0 in meteobridge W/m2
20:09 18.1 °F 17.6 °F 29.96 in WNW 2 mph 2 mph 98% 0 in meteobridge W/m2
Juneau County Weather
Compliments of Weather Underground - 5.25 mb